sensor_id;sensor_type;location;lat;lon;timestamp;P1;durP1;ratioP1;P2;durP2;ratioP2
49223;SDS011;35050;51.316;5.994;2023-06-19T00:02:02;2.20;;;2.03;;
49223;SDS011;35050;51.316;5.994;2023-06-19T00:04:28;2.08;;;1.98;;
49223;SDS011;35050;51.316;5.994;2023-06-19T00:06:53;2.13;;;2.00;;
49223;SDS011;35050;51.316;5.994;2023-06-19T00:09:19;2.33;;;2.13;;
49223;SDS011;35050;51.316;5.994;2023-06-19T00:11:45;2.60;;;2.15;;
49223;SDS011;35050;51.316;5.994;2023-06-19T00:14:11;2.35;;;2.15;;
49223;SDS011;35050;51.316;5.994;2023-06-19T00:16:36;2.30;;;2.10;;
49223;SDS011;35050;51.316;5.994;2023-06-19T00:19:02;2.08;;;1.98;;
49223;SDS011;35050;51.316;5.994;2023-06-19T00:21:28;2.40;;;2.17;;
49223;SDS011;35050;51.316;5.994;2023-06-19T00:23:55;2.30;;;2.10;;
49223;SDS011;35050;51.316;5.994;2023-06-19T00:26:21;1.85;;;1.75;;
49223;SDS011;35050;51.316;5.994;2023-06-19T00:28:50;1.92;;;1.83;;
49223;SDS011;35050;51.316;5.994;2023-06-19T00:31:16;2.50;;;2.30;;
49223;SDS011;35050;51.316;5.994;2023-06-19T00:33:43;2.17;;;1.98;;
49223;SDS011;35050;51.316;5.994;2023-06-19T00:36:10;2.15;;;1.95;;
49223;SDS011;35050;51.316;5.994;2023-06-19T00:38:40;2.40;;;2.08;;
49223;SDS011;35050;51.316;5.994;2023-06-19T00:41:06;2.78;;;1.95;;
49223;SDS011;35050;51.316;5.994;2023-06-19T00:43:32;2.30;;;2.10;;
49223;SDS011;35050;51.316;5.994;2023-06-19T00:45:58;2.13;;;1.92;;
49223;SDS011;35050;51.316;5.994;2023-06-19T00:48:24;2.15;;;2.00;;
49223;SDS011;35050;51.316;5.994;2023-06-19T00:50:52;2.10;;;1.95;;
49223;SDS011;35050;51.316;5.994;2023-06-19T00:53:18;2.10;;;1.90;;
49223;SDS011;35050;51.316;5.994;2023-06-19T00:55:45;2.03;;;1.83;;
49223;SDS011;35050;51.316;5.994;2023-06-19T00:58:12;2.72;;;2.20;;
49223;SDS011;35050;51.316;5.994;2023-06-19T01:00:38;2.47;;;2.15;;
49223;SDS011;35050;51.316;5.994;2023-06-19T01:03:04;2.03;;;1.90;;
49223;SDS011;35050;51.316;5.994;2023-06-19T01:05:30;2.50;;;2.30;;
49223;SDS011;35050;51.316;5.994;2023-06-19T01:11:02;2.50;;;2.30;;
49223;SDS011;35050;51.316;5.994;2023-06-19T01:13:44;2.78;;;2.30;;
49223;SDS011;35050;51.316;5.994;2023-06-19T01:16:12;2.47;;;2.28;;
49223;SDS011;35050;51.316;5.994;2023-06-19T01:18:39;2.67;;;2.47;;
49223;SDS011;35050;51.316;5.994;2023-06-19T01:21:09;2.30;;;2.10;;
49223;SDS011;35050;51.316;5.994;2023-06-19T01:23:39;2.50;;;2.30;;
49223;SDS011;35050;51.316;5.994;2023-06-19T01:26:06;2.30;;;2.08;;
49223;SDS011;35050;51.316;5.994;2023-06-19T01:28:32;3.05;;;2.03;;
49223;SDS011;35050;51.316;5.994;2023-06-19T01:31:02;2.53;;;2.10;;
49223;SDS011;35050;51.316;5.994;2023-06-19T01:33:36;2.47;;;2.28;;
49223;SDS011;35050;51.316;5.994;2023-06-19T01:36:04;4.63;;;2.67;;
49223;SDS011;35050;51.316;5.994;2023-06-19T01:38:32;2.75;;;2.55;;
49223;SDS011;35050;51.316;5.994;2023-06-19T01:40:59;2.92;;;2.60;;
49223;SDS011;35050;51.316;5.994;2023-06-19T01:43:27;5.05;;;3.17;;
49223;SDS011;35050;51.316;5.994;2023-06-19T01:45:55;5.05;;;2.75;;
49223;SDS011;35050;51.316;5.994;2023-06-19T01:48:21;3.22;;;2.75;;
49223;SDS011;35050;51.316;5.994;2023-06-19T01:50:48;9.23;;;3.60;;
49223;SDS011;35050;51.316;5.994;2023-06-19T01:53:14;4.90;;;2.85;;
49223;SDS011;35050;51.316;5.994;2023-06-19T01:55:40;4.55;;;3.17;;
49223;SDS011;35050;51.316;5.994;2023-06-19T01:58:06;3.20;;;2.92;;
49223;SDS011;35050;51.316;5.994;2023-06-19T02:00:32;4.82;;;3.35;;
49223;SDS011;35050;51.316;5.994;2023-06-19T02:03:00;3.50;;;3.20;;
49223;SDS011;35050;51.316;5.994;2023-06-19T02:05:26;4.45;;;2.65;;
49223;SDS011;35050;51.316;5.994;2023-06-19T02:07:52;2.72;;;2.50;;
49223;SDS011;35050;51.316;5.994;2023-06-19T02:10:17;2.75;;;2.50;;
49223;SDS011;35050;51.316;5.994;2023-06-19T02:12:43;3.40;;;2.72;;
49223;SDS011;35050;51.316;5.994;2023-06-19T02:15:09;3.20;;;2.90;;
49223;SDS011;35050;51.316;5.994;2023-06-19T02:17:35;3.10;;;2.80;;
49223;SDS011;35050;51.316;5.994;2023-06-19T02:20:00;3.00;;;2.70;;
49223;SDS011;35050;51.316;5.994;2023-06-19T02:22:26;2.90;;;2.60;;
49223;SDS011;35050;51.316;5.994;2023-06-19T02:24:52;3.10;;;2.80;;
49223;SDS011;35050;51.316;5.994;2023-06-19T02:27:18;3.20;;;2.90;;
49223;SDS011;35050;51.316;5.994;2023-06-19T02:29:43;2.92;;;2.60;;
49223;SDS011;35050;51.316;5.994;2023-06-19T02:32:09;3.00;;;2.70;;
49223;SDS011;35050;51.316;5.994;2023-06-19T02:34:35;20.30;;;3.28;;
49223;SDS011;35050;51.316;5.994;2023-06-19T02:37:01;3.97;;;3.03;;
49223;SDS011;35050;51.316;5.994;2023-06-19T02:39:27;4.60;;;2.50;;
49223;SDS011;35050;51.316;5.994;2023-06-19T02:41:52;4.40;;;2.55;;
49223;SDS011;35050;51.316;5.994;2023-06-19T02:44:18;3.33;;;2.85;;
49223;SDS011;35050;51.316;5.994;2023-06-19T02:46:43;3.17;;;2.35;;
49223;SDS011;35050;51.316;5.994;2023-06-19T02:49:09;3.97;;;2.35;;
49223;SDS011;35050;51.316;5.994;2023-06-19T02:51:35;5.25;;;2.70;;
49223;SDS011;35050;51.316;5.994;2023-06-19T02:54:00;3.17;;;2.35;;
49223;SDS011;35050;51.316;5.994;2023-06-19T02:56:26;2.80;;;2.50;;
49223;SDS011;35050;51.316;5.994;2023-06-19T02:58:52;2.47;;;2.28;;
49223;SDS011;35050;51.316;5.994;2023-06-19T03:01:18;2.80;;;2.38;;
49223;SDS011;35050;51.316;5.994;2023-06-19T03:03:44;3.13;;;2.60;;
49223;SDS011;35050;51.316;5.994;2023-06-19T03:06:11;5.03;;;2.70;;
49223;SDS011;35050;51.316;5.994;2023-06-19T03:08:38;2.72;;;2.33;;
49223;SDS011;35050;51.316;5.994;2023-06-19T03:11:04;2.58;;;2.13;;
49223;SDS011;35050;51.316;5.994;2023-06-19T03:13:43;2.55;;;2.13;;
49223;SDS011;35050;51.316;5.994;2023-06-19T03:16:10;2.38;;;2.10;;
49223;SDS011;35050;51.316;5.994;2023-06-19T03:18:36;3.53;;;2.20;;
49223;SDS011;35050;51.316;5.994;2023-06-19T03:21:02;2.67;;;2.30;;
49223;SDS011;35050;51.316;5.994;2023-06-19T03:23:27;2.13;;;1.95;;
49223;SDS011;35050;51.316;5.994;2023-06-19T03:25:53;2.42;;;2.08;;
49223;SDS011;35050;51.316;5.994;2023-06-19T03:28:19;2.65;;;2.20;;
49223;SDS011;35050;51.316;5.994;2023-06-19T03:30:45;2.60;;;2.15;;
49223;SDS011;35050;51.316;5.994;2023-06-19T03:33:10;2.10;;;1.80;;
49223;SDS011;35050;51.316;5.994;2023-06-19T03:35:36;2.30;;;2.10;;
49223;SDS011;35050;51.316;5.994;2023-06-19T03:38:01;4.32;;;2.40;;
49223;SDS011;35050;51.316;5.994;2023-06-19T03:40:27;1.83;;;1.73;;
49223;SDS011;35050;51.316;5.994;2023-06-19T03:42:54;2.15;;;1.83;;
49223;SDS011;35050;51.316;5.994;2023-06-19T03:45:19;2.53;;;2.22;;
49223;SDS011;35050;51.316;5.994;2023-06-19T03:47:45;2.38;;;2.03;;
49223;SDS011;35050;51.316;5.994;2023-06-19T03:50:10;2.55;;;2.05;;
49223;SDS011;35050;51.316;5.994;2023-06-19T03:52:36;2.45;;;2.08;;
49223;SDS011;35050;51.316;5.994;2023-06-19T03:55:02;2.45;;;2.10;;
49223;SDS011;35050;51.316;5.994;2023-06-19T03:57:28;2.47;;;2.13;;
49223;SDS011;35050;51.316;5.994;2023-06-19T03:59:54;2.47;;;2.20;;
49223;SDS011;35050;51.316;5.994;2023-06-19T04:02:21;2.65;;;2.00;;
49223;SDS011;35050;51.316;5.994;2023-06-19T04:04:47;2.28;;;1.90;;
49223;SDS011;35050;51.316;5.994;2023-06-19T04:07:13;2.78;;;1.90;;
49223;SDS011;35050;51.316;5.994;2023-06-19T04:09:39;2.72;;;2.20;;
49223;SDS011;35050;51.316;5.994;2023-06-19T04:12:04;2.60;;;2.15;;
49223;SDS011;35050;51.316;5.994;2023-06-19T04:14:30;2.20;;;2.00;;
49223;SDS011;35050;51.316;5.994;2023-06-19T04:16:56;3.08;;;2.17;;
49223;SDS011;35050;51.316;5.994;2023-06-19T04:19:21;2.92;;;2.00;;
49223;SDS011;35050;51.316;5.994;2023-06-19T04:21:47;2.50;;;2.20;;
49223;SDS011;35050;51.316;5.994;2023-06-19T04:24:13;2.67;;;2.00;;
49223;SDS011;35050;51.316;5.994;2023-06-19T04:26:38;2.10;;;1.90;;
49223;SDS011;35050;51.316;5.994;2023-06-19T04:29:04;1.70;;;1.60;;
49223;SDS011;35050;51.316;5.994;2023-06-19T04:31:31;2.80;;;2.00;;
49223;SDS011;35050;51.316;5.994;2023-06-19T04:33:57;2.05;;;1.80;;
49223;SDS011;35050;51.316;5.994;2023-06-19T04:36:22;2.75;;;1.70;;
49223;SDS011;35050;51.316;5.994;2023-06-19T04:38:48;1.90;;;1.63;;
49223;SDS011;35050;51.316;5.994;2023-06-19T04:41:16;3.42;;;1.88;;
49223;SDS011;35050;51.316;5.994;2023-06-19T04:43:42;1.73;;;1.63;;
49223;SDS011;35050;51.316;5.994;2023-06-19T04:46:07;2.20;;;1.77;;
49223;SDS011;35050;51.316;5.994;2023-06-19T04:48:33;1.95;;;1.58;;
49223;SDS011;35050;51.316;5.994;2023-06-19T04:51:01;1.50;;;1.40;;
49223;SDS011;35050;51.316;5.994;2023-06-19T04:53:27;1.73;;;1.50;;
49223;SDS011;35050;51.316;5.994;2023-06-19T04:55:53;2.22;;;1.60;;
49223;SDS011;35050;51.316;5.994;2023-06-19T04:58:20;1.63;;;1.48;;
49223;SDS011;35050;51.316;5.994;2023-06-19T05:00:47;3.00;;;1.67;;
49223;SDS011;35050;51.316;5.994;2023-06-19T05:03:19;2.38;;;1.77;;
49223;SDS011;35050;51.316;5.994;2023-06-19T05:05:46;2.38;;;1.92;;
49223;SDS011;35050;51.316;5.994;2023-06-19T05:08:12;2.05;;;1.90;;
49223;SDS011;35050;51.316;5.994;2023-06-19T05:10:38;3.35;;;2.00;;
49223;SDS011;35050;51.316;5.994;2023-06-19T05:13:03;2.78;;;2.20;;
49223;SDS011;35050;51.316;5.994;2023-06-19T05:15:29;3.00;;;1.98;;
49223;SDS011;35050;51.316;5.994;2023-06-19T05:17:55;2.65;;;2.15;;
49223;SDS011;35050;51.316;5.994;2023-06-19T05:20:20;2.28;;;1.80;;
49223;SDS011;35050;51.316;5.994;2023-06-19T05:22:46;2.28;;;1.98;;
49223;SDS011;35050;51.316;5.994;2023-06-19T05:25:12;1.73;;;1.63;;
49223;SDS011;35050;51.316;5.994;2023-06-19T05:27:37;3.20;;;2.15;;
49223;SDS011;35050;51.316;5.994;2023-06-19T05:30:03;2.30;;;2.10;;
49223;SDS011;35050;51.316;5.994;2023-06-19T05:32:29;2.50;;;1.95;;
49223;SDS011;35050;51.316;5.994;2023-06-19T05:34:55;1.77;;;1.67;;
49223;SDS011;35050;51.316;5.994;2023-06-19T05:37:22;3.28;;;1.90;;
49223;SDS011;35050;51.316;5.994;2023-06-19T05:39:48;2.33;;;1.70;;
49223;SDS011;35050;51.316;5.994;2023-06-19T05:42:14;2.30;;;2.10;;
49223;SDS011;35050;51.316;5.994;2023-06-19T05:44:40;2.20;;;2.00;;
49223;SDS011;35050;51.316;5.994;2023-06-19T05:47:06;2.20;;;2.00;;
49223;SDS011;35050;51.316;5.994;2023-06-19T05:49:31;1.90;;;1.80;;
49223;SDS011;35050;51.316;5.994;2023-06-19T05:51:57;2.92;;;2.03;;
49223;SDS011;35050;51.316;5.994;2023-06-19T05:54:26;3.70;;;2.58;;
49223;SDS011;35050;51.316;5.994;2023-06-19T05:56:52;3.55;;;2.10;;
49223;SDS011;35050;51.316;5.994;2023-06-19T05:59:18;3.67;;;2.35;;
49223;SDS011;35050;51.316;5.994;2023-06-19T06:01:43;2.63;;;2.15;;
49223;SDS011;35050;51.316;5.994;2023-06-19T06:04:09;2.65;;;2.45;;
49223;SDS011;35050;51.316;5.994;2023-06-19T06:06:35;2.25;;;2.03;;
49223;SDS011;35050;51.316;5.994;2023-06-19T06:09:00;2.55;;;2.28;;
49223;SDS011;35050;51.316;5.994;2023-06-19T06:11:26;3.10;;;2.70;;
49223;SDS011;35050;51.316;5.994;2023-06-19T06:13:51;2.90;;;2.70;;
49223;SDS011;35050;51.316;5.994;2023-06-19T06:16:17;2.45;;;2.10;;
49223;SDS011;35050;51.316;5.994;2023-06-19T06:18:44;2.47;;;2.03;;
49223;SDS011;35050;51.316;5.994;2023-06-19T06:21:10;3.88;;;1.90;;
49223;SDS011;35050;51.316;5.994;2023-06-19T06:23:37;2.67;;;2.30;;
49223;SDS011;35050;51.316;5.994;2023-06-19T06:26:03;2.45;;;2.10;;
49223;SDS011;35050;51.316;5.994;2023-06-19T06:28:29;2.05;;;1.95;;
49223;SDS011;35050;51.316;5.994;2023-06-19T06:30:56;2.80;;;2.50;;
49223;SDS011;35050;51.316;5.994;2023-06-19T06:33:22;3.60;;;2.20;;
49223;SDS011;35050;51.316;5.994;2023-06-19T06:35:48;1.95;;;1.80;;
49223;SDS011;35050;51.316;5.994;2023-06-19T06:38:14;3.05;;;2.08;;
49223;SDS011;35050;51.316;5.994;2023-06-19T06:40:40;2.55;;;2.35;;
49223;SDS011;35050;51.316;5.994;2023-06-19T06:43:06;2.30;;;2.10;;
49223;SDS011;35050;51.316;5.994;2023-06-19T06:45:32;3.05;;;2.83;;
49223;SDS011;35050;51.316;5.994;2023-06-19T06:47:57;2.40;;;2.20;;
49223;SDS011;35050;51.316;5.994;2023-06-19T06:50:23;2.15;;;1.80;;
49223;SDS011;35050;51.316;5.994;2023-06-19T06:52:49;6.45;;;1.90;;
49223;SDS011;35050;51.316;5.994;2023-06-19T06:55:14;3.65;;;2.78;;
49223;SDS011;35050;51.316;5.994;2023-06-19T06:57:40;2.03;;;1.80;;
49223;SDS011;35050;51.316;5.994;2023-06-19T07:00:06;3.17;;;2.00;;
49223;SDS011;35050;51.316;5.994;2023-06-19T07:02:34;2.40;;;2.20;;
49223;SDS011;35050;51.316;5.994;2023-06-19T07:05:02;2.63;;;1.90;;
49223;SDS011;35050;51.316;5.994;2023-06-19T07:07:27;2.38;;;1.95;;
49223;SDS011;35050;51.316;5.994;2023-06-19T07:09:53;1.80;;;1.70;;
49223;SDS011;35050;51.316;5.994;2023-06-19T07:12:19;3.10;;;1.98;;
49223;SDS011;35050;51.316;5.994;2023-06-19T07:14:44;3.78;;;2.17;;
49223;SDS011;35050;51.316;5.994;2023-06-19T07:17:10;2.40;;;2.20;;
49223;SDS011;35050;51.316;5.994;2023-06-19T07:19:36;2.13;;;2.00;;
49223;SDS011;35050;51.316;5.994;2023-06-19T07:22:01;3.17;;;2.10;;
49223;SDS011;35050;51.316;5.994;2023-06-19T07:24:27;2.15;;;1.67;;
49223;SDS011;35050;51.316;5.994;2023-06-19T07:26:53;2.60;;;1.90;;
49223;SDS011;35050;51.316;5.994;2023-06-19T07:29:18;1.92;;;1.80;;
49223;SDS011;35050;51.316;5.994;2023-06-19T07:31:44;2.45;;;2.10;;
49223;SDS011;35050;51.316;5.994;2023-06-19T07:34:10;2.90;;;2.30;;
49223;SDS011;35050;51.316;5.994;2023-06-19T07:36:36;2.17;;;1.98;;
49223;SDS011;35050;51.316;5.994;2023-06-19T07:39:01;2.58;;;2.25;;
49223;SDS011;35050;51.316;5.994;2023-06-19T07:41:27;1.90;;;1.80;;
49223;SDS011;35050;51.316;5.994;2023-06-19T07:43:53;2.28;;;1.80;;
49223;SDS011;35050;51.316;5.994;2023-06-19T07:46:18;2.30;;;1.80;;
49223;SDS011;35050;51.316;5.994;2023-06-19T07:48:44;1.77;;;1.67;;
49223;SDS011;35050;51.316;5.994;2023-06-19T07:51:10;2.15;;;1.95;;
49223;SDS011;35050;51.316;5.994;2023-06-19T07:53:36;2.40;;;2.20;;
49223;SDS011;35050;51.316;5.994;2023-06-19T07:56:01;2.22;;;2.03;;
49223;SDS011;35050;51.316;5.994;2023-06-19T07:58:27;2.88;;;1.90;;
49223;SDS011;35050;51.316;5.994;2023-06-19T08:00:52;4.68;;;2.40;;
49223;SDS011;35050;51.316;5.994;2023-06-19T08:03:18;2.75;;;2.25;;
49223;SDS011;35050;51.316;5.994;2023-06-19T08:05:43;2.10;;;1.90;;
49223;SDS011;35050;51.316;5.994;2023-06-19T08:08:11;4.72;;;2.50;;
49223;SDS011;35050;51.316;5.994;2023-06-19T08:10:37;2.40;;;2.20;;
49223;SDS011;35050;51.316;5.994;2023-06-19T08:13:03;2.45;;;2.25;;
49223;SDS011;35050;51.316;5.994;2023-06-19T08:15:29;3.10;;;2.78;;
49223;SDS011;35050;51.316;5.994;2023-06-19T08:17:54;2.65;;;2.40;;
49223;SDS011;35050;51.316;5.994;2023-06-19T08:20:20;3.15;;;2.67;;
49223;SDS011;35050;51.316;5.994;2023-06-19T08:22:46;2.38;;;2.17;;
49223;SDS011;35050;51.316;5.994;2023-06-19T08:25:11;2.65;;;2.20;;
49223;SDS011;35050;51.316;5.994;2023-06-19T08:27:37;2.90;;;2.65;;
49223;SDS011;35050;51.316;5.994;2023-06-19T08:30:03;2.50;;;2.30;;
49223;SDS011;35050;51.316;5.994;2023-06-19T08:32:29;2.60;;;2.30;;
49223;SDS011;35050;51.316;5.994;2023-06-19T08:34:55;2.97;;;2.67;;
49223;SDS011;35050;51.316;5.994;2023-06-19T08:37:20;2.80;;;2.60;;
49223;SDS011;35050;51.316;5.994;2023-06-19T08:39:46;3.63;;;2.70;;
49223;SDS011;35050;51.316;5.994;2023-06-19T08:42:12;3.78;;;2.78;;
49223;SDS011;35050;51.316;5.994;2023-06-19T08:44:38;6.30;;;3.60;;
49223;SDS011;35050;51.316;5.994;2023-06-19T08:47:03;3.88;;;2.72;;
49223;SDS011;35050;51.316;5.994;2023-06-19T08:49:30;3.40;;;2.80;;
49223;SDS011;35050;51.316;5.994;2023-06-19T08:51:58;3.30;;;3.00;;
49223;SDS011;35050;51.316;5.994;2023-06-19T08:54:24;3.30;;;3.00;;
49223;SDS011;35050;51.316;5.994;2023-06-19T08:56:50;4.32;;;3.15;;
49223;SDS011;35050;51.316;5.994;2023-06-19T08:59:18;3.33;;;3.03;;
49223;SDS011;35050;51.316;5.994;2023-06-19T09:01:51;3.20;;;2.90;;
49223;SDS011;35050;51.316;5.994;2023-06-19T09:04:21;3.92;;;2.83;;
49223;SDS011;35050;51.316;5.994;2023-06-19T09:06:59;2.08;;;1.98;;
49223;SDS011;35050;51.316;5.994;2023-06-19T09:09:28;3.20;;;2.67;;
49223;SDS011;35050;51.316;5.994;2023-06-19T09:17:00;3.35;;;3.05;;
49223;SDS011;35050;51.316;5.994;2023-06-19T09:19:27;2.83;;;2.63;;
49223;SDS011;35050;51.316;5.994;2023-06-19T09:21:53;3.55;;;2.60;;
49223;SDS011;35050;51.316;5.994;2023-06-19T09:24:23;3.20;;;2.88;;
49223;SDS011;35050;51.316;5.994;2023-06-19T09:27:05;3.42;;;2.80;;
49223;SDS011;35050;51.316;5.994;2023-06-19T09:29:43;3.88;;;3.40;;
49223;SDS011;35050;51.316;5.994;2023-06-19T09:32:20;5.55;;;5.05;;
49223;SDS011;35050;51.316;5.994;2023-06-19T09:34:47;7.30;;;4.13;;
49223;SDS011;35050;51.316;5.994;2023-06-19T09:37:16;4.22;;;3.55;;
49223;SDS011;35050;51.316;5.994;2023-06-19T09:39:54;4.65;;;3.55;;
49223;SDS011;35050;51.316;5.994;2023-06-19T09:42:32;3.63;;;3.17;;
49223;SDS011;35050;51.316;5.994;2023-06-19T09:45:02;3.40;;;3.10;;
49223;SDS011;35050;51.316;5.994;2023-06-19T09:50:13;3.35;;;2.92;;
49223;SDS011;35050;51.316;5.994;2023-06-19T09:52:40;5.28;;;3.05;;
49223;SDS011;35050;51.316;5.994;2023-06-19T09:55:07;2.95;;;2.53;;
49223;SDS011;35050;51.316;5.994;2023-06-19T09:57:35;4.35;;;2.63;;
49223;SDS011;35050;51.316;5.994;2023-06-19T10:00:03;5.40;;;2.90;;
49223;SDS011;35050;51.316;5.994;2023-06-19T10:02:37;4.25;;;3.30;;
49223;SDS011;35050;51.316;5.994;2023-06-19T10:05:05;4.70;;;3.30;;
49223;SDS011;35050;51.316;5.994;2023-06-19T10:07:36;4.80;;;3.53;;
49223;SDS011;35050;51.316;5.994;2023-06-19T10:12:36;3.67;;;3.30;;
49223;SDS011;35050;51.316;5.994;2023-06-19T10:17:34;5.40;;;3.33;;
49223;SDS011;35050;51.316;5.994;2023-06-19T10:20:00;3.80;;;2.88;;
49223;SDS011;35050;51.316;5.994;2023-06-19T10:22:32;3.70;;;3.25;;
49223;SDS011;35050;51.316;5.994;2023-06-19T10:24:58;3.37;;;3.07;;
49223;SDS011;35050;51.316;5.994;2023-06-19T10:27:24;3.75;;;3.10;;
49223;SDS011;35050;51.316;5.994;2023-06-19T10:29:54;3.60;;;3.25;;
49223;SDS011;35050;51.316;5.994;2023-06-19T10:32:22;4.00;;;2.85;;
49223;SDS011;35050;51.316;5.994;2023-06-19T10:34:48;3.05;;;2.72;;
49223;SDS011;35050;51.316;5.994;2023-06-19T10:37:17;2.90;;;2.60;;
49223;SDS011;35050;51.316;5.994;2023-06-19T10:39:43;3.05;;;2.80;;
49223;SDS011;35050;51.316;5.994;2023-06-19T10:42:09;3.92;;;2.75;;
49223;SDS011;35050;51.316;5.994;2023-06-19T10:44:35;3.70;;;2.55;;
49223;SDS011;35050;51.316;5.994;2023-06-19T10:47:03;3.03;;;2.80;;
49223;SDS011;35050;51.316;5.994;2023-06-19T10:49:29;3.83;;;2.70;;
49223;SDS011;35050;51.316;5.994;2023-06-19T10:51:55;3.03;;;2.70;;
49223;SDS011;35050;51.316;5.994;2023-06-19T10:54:25;3.80;;;2.95;;
49223;SDS011;35050;51.316;5.994;2023-06-19T10:56:51;3.63;;;2.92;;
49223;SDS011;35050;51.316;5.994;2023-06-19T10:59:16;4.13;;;2.60;;
49223;SDS011;35050;51.316;5.994;2023-06-19T11:01:47;3.20;;;2.88;;
49223;SDS011;35050;51.316;5.994;2023-06-19T11:04:15;4.07;;;2.78;;
49223;SDS011;35050;51.316;5.994;2023-06-19T11:06:41;4.15;;;2.65;;
49223;SDS011;35050;51.316;5.994;2023-06-19T11:09:09;3.30;;;2.95;;
49223;SDS011;35050;51.316;5.994;2023-06-19T11:14:04;3.03;;;2.78;;
49223;SDS011;35050;51.316;5.994;2023-06-19T11:16:30;2.80;;;2.58;;
49223;SDS011;35050;51.316;5.994;2023-06-19T11:18:57;3.47;;;3.10;;
49223;SDS011;35050;51.316;5.994;2023-06-19T11:21:32;4.03;;;3.50;;
49223;SDS011;35050;51.316;5.994;2023-06-19T11:24:00;4.35;;;3.25;;
49223;SDS011;35050;51.316;5.994;2023-06-19T11:26:26;3.13;;;2.83;;
49223;SDS011;35050;51.316;5.994;2023-06-19T11:28:52;4.82;;;3.22;;
49223;SDS011;35050;51.316;5.994;2023-06-19T11:31:24;3.97;;;3.30;;
49223;SDS011;35050;51.316;5.994;2023-06-19T11:33:55;3.53;;;3.13;;
49223;SDS011;35050;51.316;5.994;2023-06-19T11:36:26;4.07;;;3.10;;
49223;SDS011;35050;51.316;5.994;2023-06-19T11:38:52;4.43;;;3.22;;
49223;SDS011;35050;51.316;5.994;2023-06-19T11:41:25;3.67;;;3.35;;
49223;SDS011;35050;51.316;5.994;2023-06-19T11:44:03;5.18;;;3.47;;
49223;SDS011;35050;51.316;5.994;2023-06-19T11:46:31;3.80;;;3.00;;
49223;SDS011;35050;51.316;5.994;2023-06-19T11:49:16;3.30;;;3.00;;
49223;SDS011;35050;51.316;5.994;2023-06-19T11:51:45;3.67;;;3.33;;
49223;SDS011;35050;51.316;5.994;2023-06-19T11:54:12;4.07;;;3.50;;
49223;SDS011;35050;51.316;5.994;2023-06-19T11:56:39;3.70;;;3.40;;
49223;SDS011;35050;51.316;5.994;2023-06-19T11:59:05;4.03;;;3.40;;
49223;SDS011;35050;51.316;5.994;2023-06-19T12:01:32;5.00;;;3.72;;
49223;SDS011;35050;51.316;5.994;2023-06-19T12:03:58;4.30;;;3.30;;
49223;SDS011;35050;51.316;5.994;2023-06-19T12:06:25;3.42;;;3.08;;
49223;SDS011;35050;51.316;5.994;2023-06-19T12:08:51;4.10;;;3.30;;
49223;SDS011;35050;51.316;5.994;2023-06-19T12:11:16;4.30;;;3.40;;
49223;SDS011;35050;51.316;5.994;2023-06-19T12:13:42;4.75;;;3.42;;
49223;SDS011;35050;51.316;5.994;2023-06-19T12:16:09;4.32;;;3.38;;
49223;SDS011;35050;51.316;5.994;2023-06-19T12:18:35;4.53;;;3.58;;
49223;SDS011;35050;51.316;5.994;2023-06-19T12:21:01;4.10;;;3.70;;
49223;SDS011;35050;51.316;5.994;2023-06-19T12:23:27;4.13;;;3.35;;
49223;SDS011;35050;51.316;5.994;2023-06-19T12:25:53;5.55;;;4.00;;
49223;SDS011;35050;51.316;5.994;2023-06-19T12:28:19;3.60;;;3.10;;
49223;SDS011;35050;51.316;5.994;2023-06-19T12:30:44;3.50;;;3.20;;
49223;SDS011;35050;51.316;5.994;2023-06-19T12:33:11;3.13;;;2.92;;
49223;SDS011;35050;51.316;5.994;2023-06-19T12:35:40;3.50;;;3.00;;
49223;SDS011;35050;51.316;5.994;2023-06-19T12:38:06;3.22;;;2.92;;
49223;SDS011;35050;51.316;5.994;2023-06-19T12:40:33;3.67;;;3.38;;
49223;SDS011;35050;51.316;5.994;2023-06-19T12:42:58;4.47;;;3.50;;
49223;SDS011;35050;51.316;5.994;2023-06-19T12:45:24;5.30;;;3.55;;
49223;SDS011;35050;51.316;5.994;2023-06-19T12:47:50;4.28;;;3.60;;
49223;SDS011;35050;51.316;5.994;2023-06-19T12:50:15;3.97;;;3.50;;
49223;SDS011;35050;51.316;5.994;2023-06-19T12:52:41;4.20;;;3.35;;
49223;SDS011;35050;51.316;5.994;2023-06-19T12:55:07;4.82;;;3.72;;
49223;SDS011;35050;51.316;5.994;2023-06-19T12:57:33;3.65;;;3.33;;
49223;SDS011;35050;51.316;5.994;2023-06-19T12:59:59;3.42;;;3.13;;
49223;SDS011;35050;51.316;5.994;2023-06-19T13:02:24;3.35;;;3.03;;
49223;SDS011;35050;51.316;5.994;2023-06-19T13:04:50;3.50;;;3.20;;
49223;SDS011;35050;51.316;5.994;2023-06-19T13:07:16;4.60;;;3.40;;
49223;SDS011;35050;51.316;5.994;2023-06-19T13:09:42;4.15;;;3.13;;
49223;SDS011;35050;51.316;5.994;2023-06-19T13:12:08;3.55;;;3.25;;
49223;SDS011;35050;51.316;5.994;2023-06-19T13:14:34;3.88;;;3.20;;
49223;SDS011;35050;51.316;5.994;2023-06-19T13:16:59;3.30;;;3.00;;
49223;SDS011;35050;51.316;5.994;2023-06-19T13:19:25;3.88;;;3.30;;
49223;SDS011;35050;51.316;5.994;2023-06-19T13:21:52;3.53;;;3.22;;
49223;SDS011;35050;51.316;5.994;2023-06-19T13:24:17;4.50;;;3.53;;
49223;SDS011;35050;51.316;5.994;2023-06-19T13:26:44;4.28;;;3.55;;
49223;SDS011;35050;51.316;5.994;2023-06-19T13:29:11;3.80;;;3.40;;
49223;SDS011;35050;51.316;5.994;2023-06-19T13:31:36;5.28;;;4.18;;
49223;SDS011;35050;51.316;5.994;2023-06-19T13:34:02;4.95;;;4.18;;
49223;SDS011;35050;51.316;5.994;2023-06-19T13:36:29;3.65;;;3.10;;
49223;SDS011;35050;51.316;5.994;2023-06-19T13:38:54;5.95;;;3.40;;
49223;SDS011;35050;51.316;5.994;2023-06-19T13:41:20;5.00;;;3.90;;
49223;SDS011;35050;51.316;5.994;2023-06-19T13:43:48;4.03;;;3.40;;
49223;SDS011;35050;51.316;5.994;2023-06-19T13:46:15;3.30;;;3.00;;
49223;SDS011;35050;51.316;5.994;2023-06-19T13:48:41;3.20;;;2.90;;
49223;SDS011;35050;51.316;5.994;2023-06-19T13:51:07;5.20;;;3.53;;
49223;SDS011;35050;51.316;5.994;2023-06-19T13:53:33;4.22;;;3.63;;
49223;SDS011;35050;51.316;5.994;2023-06-19T13:55:58;3.60;;;3.30;;
49223;SDS011;35050;51.316;5.994;2023-06-19T13:58:24;3.50;;;3.10;;
49223;SDS011;35050;51.316;5.994;2023-06-19T14:00:50;3.63;;;3.33;;
49223;SDS011;35050;51.316;5.994;2023-06-19T14:03:15;3.22;;;2.90;;
49223;SDS011;35050;51.316;5.994;2023-06-19T14:05:41;4.10;;;3.33;;
49223;SDS011;35050;51.316;5.994;2023-06-19T14:08:08;3.28;;;2.97;;
49223;SDS011;35050;51.316;5.994;2023-06-19T14:10:34;3.50;;;3.20;;
49223;SDS011;35050;51.316;5.994;2023-06-19T14:13:00;3.30;;;3.00;;
49223;SDS011;35050;51.316;5.994;2023-06-19T14:15:26;3.90;;;3.53;;
49223;SDS011;35050;51.316;5.994;2023-06-19T14:17:51;5.78;;;3.13;;
49223;SDS011;35050;51.316;5.994;2023-06-19T14:20:17;3.10;;;2.80;;
49223;SDS011;35050;51.316;5.994;2023-06-19T14:22:43;3.80;;;3.03;;
49223;SDS011;35050;51.316;5.994;2023-06-19T14:25:09;3.42;;;3.05;;
49223;SDS011;35050;51.316;5.994;2023-06-19T14:27:34;4.53;;;2.92;;
49223;SDS011;35050;51.316;5.994;2023-06-19T14:30:00;3.17;;;2.88;;
49223;SDS011;35050;51.316;5.994;2023-06-19T14:32:25;3.10;;;2.80;;
49223;SDS011;35050;51.316;5.994;2023-06-19T14:34:51;3.42;;;2.85;;
49223;SDS011;35050;51.316;5.994;2023-06-19T14:37:17;3.38;;;3.08;;
49223;SDS011;35050;51.316;5.994;2023-06-19T14:39:43;2.90;;;2.70;;
49223;SDS011;35050;51.316;5.994;2023-06-19T14:42:08;2.65;;;2.45;;
49223;SDS011;35050;51.316;5.994;2023-06-19T14:44:35;3.60;;;3.30;;
49223;SDS011;35050;51.316;5.994;2023-06-19T14:47:01;4.38;;;3.20;;
49223;SDS011;35050;51.316;5.994;2023-06-19T14:49:27;3.15;;;2.78;;
49223;SDS011;35050;51.316;5.994;2023-06-19T14:51:53;3.90;;;2.75;;
49223;SDS011;35050;51.316;5.994;2023-06-19T14:54:19;3.20;;;2.90;;
49223;SDS011;35050;51.316;5.994;2023-06-19T14:56:44;3.10;;;2.90;;
49223;SDS011;35050;51.316;5.994;2023-06-19T14:59:13;3.25;;;2.80;;
49223;SDS011;35050;51.316;5.994;2023-06-19T15:01:39;3.03;;;2.83;;
49223;SDS011;35050;51.316;5.994;2023-06-19T15:04:05;2.90;;;2.70;;